Time;durP1;ratioP1;P1;durP2;ratioP2;P2;SDS_P1;SDS_P2;PMS_P1;PMS_P2;Temp;Humidity;BMP_temperature;BMP_pressure;BME280_temperature;BME280_humidity;BME280_pressure;Samples;Min_cycle;Max_cycle;Signal;HPM_P1;HPM_P2
2022/08/01 00:01:33;;;;;;;7.28;2.08;;;;;;;;;;5116386;28;20048;-80
2022/08/01 00:04:19;;;;;;;5.03;2.08;;;;;;;;;;5116542;28;20051;-80
2022/08/01 00:07:04;;;;;;;4.75;2.00;;;;;;;;;;5116844;28;20484;-80
2022/08/01 00:09:51;;;;;;;4.95;1.90;;;;;;;;;;5123321;28;20044;-80
2022/08/01 00:12:37;;;;;;;4.95;2.00;;;;;;;;;;5116081;28;20047;-80
2022/08/01 00:15:23;;;;;;;3.67;1.92;;;;;;;;;;5123022;28;20040;-80
2022/08/01 00:18:09;;;;;;;3.63;1.80;;;;;;;;;;5115349;28;20040;-80
2022/08/01 00:20:54;;;;;;;6.85;1.85;;;;;;;;;;5116554;28;20039;-80
2022/08/01 00:23:40;;;;;;;2.58;1.88;;;;;;;;;;5116332;28;20408;-79
2022/08/01 00:26:25;;;;;;;4.18;1.90;;;;;;;;;;5116124;28;20039;-80
2022/08/01 00:29:11;;;;;;;6.25;2.22;;;;;;;;;;5115904;28;20051;-80
2022/08/01 00:31:56;;;;;;;3.92;2.60;;;;;;;;;;5116257;28;20388;-80
2022/08/01 00:34:42;;;;;;;2.70;2.05;;;;;;;;;;5122913;28;20391;-80
2022/08/01 00:37:27;;;;;;;4.65;2.40;;;;;;;;;;5121587;28;20036;-80
2022/08/01 00:40:12;;;;;;;3.67;2.58;;;;;;;;;;5122648;28;20043;-80
2022/08/01 00:42:58;;;;;;;3.47;2.42;;;;;;;;;;5122347;28;20047;-80
2022/08/01 00:45:43;;;;;;;3.90;2.50;;;;;;;;;;5122529;28;20480;-80
2022/08/01 00:48:29;;;;;;;4.43;2.50;;;;;;;;;;5115883;28;20484;-80
2022/08/01 00:51:15;;;;;;;4.32;2.70;;;;;;;;;;5122350;28;20396;-80
2022/08/01 00:54:00;;;;;;;5.57;2.20;;;;;;;;;;5115832;28;20047;-80
2022/08/01 00:56:47;;;;;;;3.90;2.42;;;;;;;;;;5115226;28;20047;-79
2022/08/01 00:59:34;;;;;;;3.97;1.98;;;;;;;;;;5118626;28;20044;-79
2022/08/01 01:02:19;;;;;;;3.20;2.20;;;;;;;;;;5115622;28;20043;-79
2022/08/01 01:05:05;;;;;;;3.50;2.40;;;;;;;;;;5115203;28;20389;-79
2022/08/01 01:07:55;;;;;;;4.13;2.33;;;;;;;;;;5115192;28;20044;-79
2022/08/01 01:11:00;;;;;;;3.38;2.40;;;;;;;;;;5115409;28;20047;-79
2022/08/01 01:14:03;;;;;;;8.32;2.50;;;;;;;;;;5121585;28;20047;-79
2022/08/01 01:16:49;;;;;;;2.63;2.10;;;;;;;;;;5115608;28;20043;-79
2022/08/01 01:19:41;;;;;;;5.85;2.85;;;;;;;;;;5115672;28;20043;-79
2022/08/01 01:22:56;;;;;;;3.80;2.20;;;;;;;;;;5116043;28;20043;-79
2022/08/01 01:25:59;;;;;;;5.57;2.22;;;;;;;;;;5094628;28;20392;-78
2022/08/01 01:29:05;;;;;;;2.58;2.08;;;;;;;;;;5115490;28;20473;-78
2022/08/01 01:32:07;;;;;;;3.85;2.33;;;;;;;;;;5114798;28;20040;-79
2022/08/01 01:34:54;;;;;;;6.72;2.40;;;;;;;;;;5114934;28;20039;-78
2022/08/01 01:37:41;;;;;;;4.55;2.08;;;;;;;;;;5115399;28;20043;-78
2022/08/01 01:40:28;;;;;;;4.70;2.45;;;;;;;;;;5114733;28;20487;-78
2022/08/01 01:43:16;;;;;;;4.70;2.45;;;;;;;;;;5121819;28;20036;-79
2022/08/01 01:46:04;;;;;;;2.83;2.28;;;;;;;;;;5114580;28;20043;-78
2022/08/01 01:48:50;;;;;;;5.47;2.08;;;;;;;;;;5114460;28;20047;-78
2022/08/01 01:51:38;;;;;;;4.25;2.08;;;;;;;;;;5114303;28;20035;-79
2022/08/01 01:54:29;;;;;;;6.38;2.30;;;;;;;;;;5114229;28;20044;-78
2022/08/01 01:57:16;;;;;;;6.30;2.22;;;;;;;;;;5120514;28;20479;-78
2022/08/01 02:00:02;;;;;;;2.65;2.22;;;;;;;;;;5113864;28;20047;-79
2022/08/01 02:02:52;;;;;;;5.95;2.22;;;;;;;;;;5121146;28;20052;-78
2022/08/01 02:05:39;;;;;;;2.38;1.92;;;;;;;;;;5114385;28;20035;-78
2022/08/01 02:08:25;;;;;;;2.35;2.10;;;;;;;;;;5114045;28;20048;-78
2022/08/01 02:11:21;;;;;;;4.50;2.35;;;;;;;;;;5114830;28;20197;-78
2022/08/01 02:14:09;;;;;;;5.45;2.40;;;;;;;;;;5114098;28;20043;-79
2022/08/01 02:16:57;;;;;;;4.35;2.22;;;;;;;;;;5114193;28;20039;-79
2022/08/01 02:19:43;;;;;;;3.38;2.15;;;;;;;;;;5114420;28;20039;-78
2022/08/01 02:22:41;;;;;;;6.32;2.17;;;;;;;;;;5114049;28;20484;-78
2022/08/01 02:25:52;;;;;;;2.85;2.20;;;;;;;;;;5114497;28;20044;-78
2022/08/01 02:28:50;;;;;;;2.83;2.30;;;;;;;;;;5114156;28;20051;-77
2022/08/01 02:31:40;;;;;;;6.57;2.13;;;;;;;;;;5121044;28;20039;-78
2022/08/01 02:34:31;;;;;;;5.80;2.20;;;;;;;;;;5114262;28;20491;-77
2022/08/01 02:37:18;;;;;;;3.88;2.17;;;;;;;;;;5113986;28;20488;-78
2022/08/01 02:40:05;;;;;;;2.40;2.10;;;;;;;;;;5114388;28;20044;-78
2022/08/01 02:42:54;;;;;;;5.65;2.38;;;;;;;;;;5113924;28;20043;-77
2022/08/01 02:45:47;;;;;;;4.57;2.33;;;;;;;;;;5114165;28;20040;-78
2022/08/01 02:48:34;;;;;;;3.78;2.33;;;;;;;;;;5113827;28;20048;-78
2022/08/01 02:51:23;;;;;;;3.30;2.40;;;;;;;;;;5113949;28;20036;-78
2022/08/01 02:54:10;;;;;;;2.60;2.22;;;;;;;;;;5121397;28;20043;-78
2022/08/01 02:56:56;;;;;;;2.65;2.40;;;;;;;;;;5120770;28;20044;-78
2022/08/01 02:59:44;;;;;;;2.50;2.30;;;;;;;;;;5113693;28;20052;-77
2022/08/01 03:02:31;;;;;;;5.63;2.67;;;;;;;;;;5113811;28;20048;-78
2022/08/01 03:05:17;;;;;;;5.43;3.40;;;;;;;;;;5114136;28;20392;-78
2022/08/01 03:08:03;;;;;;;6.50;3.50;;;;;;;;;;5113844;28;20048;-78
2022/08/01 03:10:50;;;;;;;6.32;3.70;;;;;;;;;;5120740;28;20051;-78
2022/08/01 03:13:36;;;;;;;5.22;3.42;;;;;;;;;;5113532;28;20039;-77
2022/08/01 03:16:24;;;;;;;5.97;2.97;;;;;;;;;;5113571;28;20043;-78
2022/08/01 03:19:11;;;;;;;5.80;2.60;;;;;;;;;;5114043;28;20040;-77
2022/08/01 03:21:58;;;;;;;3.67;2.50;;;;;;;;;;5115748;28;20036;-78
2022/08/01 03:24:49;;;;;;;6.07;2.83;;;;;;;;;;5117282;28;20407;-78
2022/08/01 03:27:37;;;;;;;6.45;3.00;;;;;;;;;;5117746;28;20040;-78
2022/08/01 03:30:24;;;;;;;3.97;2.65;;;;;;;;;;5117323;28;20044;-77
2022/08/01 03:33:10;;;;;;;6.18;2.78;;;;;;;;;;5123768;28;20039;-77
2022/08/01 03:35:56;;;;;;;3.13;2.80;;;;;;;;;;5117297;28;20047;-77
2022/08/01 03:38:43;;;;;;;7.65;2.83;;;;;;;;;;5117030;28;20040;-77
2022/08/01 03:41:33;;;;;;;6.75;2.80;;;;;;;;;;5117118;28;20039;-78
2022/08/01 03:44:24;;;;;;;12.45;2.78;;;;;;;;;;5116898;28;20043;-79
2022/08/01 03:47:11;;;;;;;4.60;3.05;;;;;;;;;;5117157;28;20051;-77
2022/08/01 03:49:58;;;;;;;7.70;2.97;;;;;;;;;;5117033;28;20036;-77
2022/08/01 03:52:46;;;;;;;7.72;3.15;;;;;;;;;;5123532;28;20396;-78
2022/08/01 03:55:32;;;;;;;5.25;3.50;;;;;;;;;;5116636;28;20040;-77
2022/08/01 03:58:18;;;;;;;9.40;3.33;;;;;;;;;;5123994;28;20039;-77
2022/08/01 04:01:05;;;;;;;6.00;3.08;;;;;;;;;;5116800;28;20044;-75
2022/08/01 04:03:51;;;;;;;11.00;3.40;;;;;;;;;;5116484;28;20055;-77
2022/08/01 04:06:40;;;;;;;5.32;3.33;;;;;;;;;;5123439;28;20036;-77
2022/08/01 04:09:26;;;;;;;3.33;2.97;;;;;;;;;;5117021;28;20048;-77
2022/08/01 04:12:12;;;;;;;3.50;2.58;;;;;;;;;;5116808;28;20044;-77
2022/08/01 04:14:58;;;;;;;7.53;3.08;;;;;;;;;;5123737;28;20051;-77
2022/08/01 04:17:43;;;;;;;6.03;3.35;;;;;;;;;;5116853;28;20036;-77
2022/08/01 04:20:29;;;;;;;6.90;2.92;;;;;;;;;;5116339;28;20389;-77
2022/08/01 04:23:22;;;;;;;5.88;2.72;;;;;;;;;;5115945;28;20047;-77
2022/08/01 04:26:10;;;;;;;5.30;2.50;;;;;;;;;;5123390;28;20044;-77
2022/08/01 04:28:56;;;;;;;4.95;2.50;;;;;;;;;;5116108;28;20043;-78
2022/08/01 04:31:45;;;;;;;9.25;3.47;;;;;;;;;;5116007;28;20400;-78
2022/08/01 04:34:32;;;;;;;6.40;2.80;;;;;;;;;;5122818;28;20047;-78
2022/08/01 04:37:19;;;;;;;4.72;3.03;;;;;;;;;;5123433;28;20035;-77
2022/08/01 04:40:06;;;;;;;9.85;3.40;;;;;;;;;;5123202;28;20043;-77
2022/08/01 04:42:52;;;;;;;9.15;3.00;;;;;;;;;;5123317;28;20055;-77
2022/08/01 04:45:39;;;;;;;8.50;2.65;;;;;;;;;;5115835;28;20043;-78
2022/08/01 04:48:25;;;;;;;9.00;2.60;;;;;;;;;;5115840;28;20039;-78
2022/08/01 04:51:15;;;;;;;5.07;3.10;;;;;;;;;;5123056;28;20036;-78
2022/08/01 04:54:01;;;;;;;4.05;2.53;;;;;;;;;;5122206;28;20043;-78
2022/08/01 04:56:46;;;;;;;4.35;2.53;;;;;;;;;;5122098;28;20482;-78
2022/08/01 04:59:40;;;;;;;8.70;3.10;;;;;;;;;;5115055;28;20040;-78
2022/08/01 05:02:28;;;;;;;6.70;2.70;;;;;;;;;;5115419;28;20384;-78
2022/08/01 05:05:14;;;;;;;6.82;3.38;;;;;;;;;;5115414;28;20040;-78
2022/08/01 05:08:00;;;;;;;6.00;2.35;;;;;;;;;;5121998;28;20043;-78
2022/08/01 05:10:45;;;;;;;4.43;2.58;;;;;;;;;;5122635;28;20035;-78
2022/08/01 05:13:30;;;;;;;4.32;2.38;;;;;;;;;;5114779;28;20039;-78
2022/08/01 05:16:16;;;;;;;6.47;2.55;;;;;;;;;;5122013;28;20044;-78
2022/08/01 05:19:02;;;;;;;6.05;2.78;;;;;;;;;;5115169;28;20216;-78
2022/08/01 05:21:47;;;;;;;6.82;2.22;;;;;;;;;;5121016;28;20057;-78
2022/08/01 05:24:38;;;;;;;6.00;2.40;;;;;;;;;;5121787;28;20399;-78
2022/08/01 05:27:23;;;;;;;3.28;2.10;;;;;;;;;;5114668;28;20047;-78
2022/08/01 05:30:09;;;;;;;3.97;2.13;;;;;;;;;;5121647;28;20048;-78
2022/08/01 05:32:55;;;;;;;3.05;2.35;;;;;;;;;;5115192;28;20039;-78
2022/08/01 05:35:40;;;;;;;2.97;2.60;;;;;;;;;;5114890;28;20035;-78
2022/08/01 05:38:25;;;;;;;3.92;2.03;;;;;;;;;;5114600;28;20400;-76
2022/08/01 05:41:11;;;;;;;4.47;2.50;;;;;;;;;;5121848;28;20047;-77
2022/08/01 05:43:57;;;;;;;7.40;2.20;;;;;;;;;;5121020;28;20480;-77
2022/08/01 05:46:42;;;;;;;3.53;2.13;;;;;;;;;;5114454;28;20051;-77
2022/08/01 05:49:28;;;;;;;7.57;2.40;;;;;;;;;;5114537;28;20044;-79
2022/08/01 05:52:13;;;;;;;5.53;2.40;;;;;;;;;;5121630;28;20040;-82
2022/08/01 05:54:59;;;;;;;2.88;1.85;;;;;;;;;;5114704;28;20052;-80
2022/08/01 05:57:44;;;;;;;3.15;2.40;;;;;;;;;;5115979;28;20048;-81
2022/08/01 06:00:30;;;;;;;7.32;1.83;;;;;;;;;;5115073;28;20040;-81
2022/08/01 06:03:16;;;;;;;3.35;2.33;;;;;;;;;;5113813;28;20055;-82
2022/08/01 06:06:02;;;;;;;4.60;1.88;;;;;;;;;;5113776;28;20488;-81
2022/08/01 06:08:47;;;;;;;6.88;2.33;;;;;;;;;;5121808;28;20476;-81
2022/08/01 06:11:33;;;;;;;3.75;2.10;;;;;;;;;;5120688;28;20388;-80
2022/08/01 06:14:18;;;;;;;2.85;2.10;;;;;;;;;;5114437;28;20044;-81
2022/08/01 06:17:04;;;;;;;5.72;2.20;;;;;;;;;;5114514;28;20488;-80
2022/08/01 06:19:49;;;;;;;3.70;2.60;;;;;;;;;;5120269;28;20059;-80
2022/08/01 06:22:35;;;;;;;9.43;2.20;;;;;;;;;;5114300;28;20043;-81
2022/08/01 06:25:20;;;;;;;3.88;2.30;;;;;;;;;;5119997;28;20044;-83
2022/08/01 06:28:06;;;;;;;5.28;2.47;;;;;;;;;;5121331;28;20047;-79
2022/08/01 06:30:52;;;;;;;9.38;2.72;;;;;;;;;;5120457;28;20484;-79
2022/08/01 06:33:37;;;;;;;5.13;2.22;;;;;;;;;;5112908;28;20040;-79
2022/08/01 06:36:23;;;;;;;5.13;2.47;;;;;;;;;;5120726;28;20056;-79
2022/08/01 06:39:08;;;;;;;6.70;2.70;;;;;;;;;;5113940;28;20055;-76
2022/08/01 06:41:54;;;;;;;3.50;1.95;;;;;;;;;;5113409;28;20043;-76
2022/08/01 06:44:39;;;;;;;5.45;2.38;;;;;;;;;;5113130;28;20040;-78
2022/08/01 06:47:25;;;;;;;9.38;2.63;;;;;;;;;;5112879;28;20044;-77
2022/08/01 06:50:14;;;;;;;6.50;2.45;;;;;;;;;;5120333;28;20044;-76
2022/08/01 06:52:59;;;;;;;2.83;2.00;;;;;;;;;;5113474;28;20043;-76
2022/08/01 06:55:45;;;;;;;6.68;2.47;;;;;;;;;;5120255;28;20051;-75
2022/08/01 06:58:31;;;;;;;5.47;2.50;;;;;;;;;;5117005;28;20396;-76
2022/08/01 07:01:16;;;;;;;3.47;2.25;;;;;;;;;;5116850;28;20480;-77
2022/08/01 07:04:02;;;;;;;5.53;2.50;;;;;;;;;;5124365;28;20044;-75
2022/08/01 07:06:47;;;;;;;4.20;2.33;;;;;;;;;;5116984;28;20043;-76
2022/08/01 07:09:33;;;;;;;2.85;2.13;;;;;;;;;;5116990;28;20040;-78
2022/08/01 07:12:19;;;;;;;5.18;2.20;;;;;;;;;;5124242;28;20044;-78
2022/08/01 07:15:05;;;;;;;8.48;3.40;;;;;;;;;;5124189;28;20044;-78
2022/08/01 07:17:51;;;;;;;4.55;2.10;;;;;;;;;;5116285;28;20055;-77
2022/08/01 07:20:37;;;;;;;7.55;2.88;;;;;;;;;;5116929;28;20047;-79
2022/08/01 07:23:23;;;;;;;5.05;2.50;;;;;;;;;;5116976;28;20051;-78
2022/08/01 07:26:08;;;;;;;6.35;2.35;;;;;;;;;;5123636;28;20040;-77
2022/08/01 07:28:54;;;;;;;5.32;2.17;;;;;;;;;;5117200;28;20051;-77
2022/08/01 07:31:40;;;;;;;3.88;2.67;;;;;;;;;;5117017;28;20036;-77
2022/08/01 07:34:26;;;;;;;4.65;2.53;;;;;;;;;;5123432;28;20047;-78
2022/08/01 07:37:12;;;;;;;2.92;2.30;;;;;;;;;;5116579;28;20039;-80
2022/08/01 07:39:57;;;;;;;4.28;2.60;;;;;;;;;;5123287;28;20036;-78
2022/08/01 07:42:44;;;;;;;4.80;2.70;;;;;;;;;;5122990;28;20051;-79
2022/08/01 07:45:30;;;;;;;3.28;2.40;;;;;;;;;;5122626;28;20047;-78
2022/08/01 07:48:15;;;;;;;7.10;2.40;;;;;;;;;;5115800;28;20048;-77
2022/08/01 07:51:00;;;;;;;4.82;2.50;;;;;;;;;;5116238;28;20047;-79
2022/08/01 07:53:46;;;;;;;3.95;2.28;;;;;;;;;;5123339;28;20051;-79
2022/08/01 07:56:32;;;;;;;7.00;2.50;;;;;;;;;;5116558;28;20051;-78
2022/08/01 07:59:22;;;;;;;4.28;2.28;;;;;;;;;;5116022;28;20051;-79
2022/08/01 08:02:08;;;;;;;2.53;2.05;;;;;;;;;;5115979;28;20043;-77
2022/08/01 08:04:54;;;;;;;6.07;2.60;;;;;;;;;;5116238;28;20047;-80
2022/08/01 08:07:39;;;;;;;6.28;2.75;;;;;;;;;;5115324;28;20043;-80
2022/08/01 08:10:25;;;;;;;11.68;3.30;;;;;;;;;;5116233;28;20043;-81
2022/08/01 08:13:10;;;;;;;5.55;2.90;;;;;;;;;;5122577;28;20044;-79
2022/08/01 08:15:58;;;;;;;6.68;2.78;;;;;;;;;;5115991;28;20048;-86
2022/08/01 08:18:44;;;;;;;8.38;3.40;;;;;;;;;;5122842;28;20043;-78
2022/08/01 08:21:30;;;;;;;3.67;2.40;;;;;;;;;;5117413;28;20036;-79
2022/08/01 08:24:20;;;;;;;4.63;2.67;;;;;;;;;;5115959;28;20039;-79
2022/08/01 08:27:05;;;;;;;9.00;4.13;;;;;;;;;;5115987;28;20484;-80
2022/08/01 08:29:51;;;;;;;4.85;2.83;;;;;;;;;;5116437;28;20040;-78
2022/08/01 08:32:37;;;;;;;8.85;2.42;;;;;;;;;;5116042;28;20036;-78
2022/08/01 08:35:22;;;;;;;4.35;2.50;;;;;;;;;;5116035;28;20043;-77
2022/08/01 08:38:08;;;;;;;6.38;2.17;;;;;;;;;;5122845;28;20488;-79
2022/08/01 08:40:54;;;;;;;4.07;1.98;;;;;;;;;;5115345;28;20043;-82
2022/08/01 08:43:38;;;;;;;4.85;2.65;;;;;;;;;;5115324;28;20043;-81
2022/08/01 08:46:28;;;;;;;5.00;2.45;;;;;;;;;;5113618;28;20476;-81
2022/08/01 08:49:18;;;;;;;5.25;2.20;;;;;;;;;;5113757;28;20040;-76
2022/08/01 08:52:04;;;;;;;4.47;2.40;;;;;;;;;;5116386;28;20432;-77
2022/08/01 08:54:51;;;;;;;3.95;2.25;;;;;;;;;;5115356;28;20039;-77
2022/08/01 08:57:39;;;;;;;3.63;2.40;;;;;;;;;;5123494;28;20036;-77
2022/08/01 09:00:26;;;;;;;7.53;2.63;;;;;;;;;;5118565;28;20043;-77
2022/08/01 09:03:12;;;;;;;5.25;2.50;;;;;;;;;;5117680;28;20044;-76
2022/08/01 09:05:57;;;;;;;3.83;2.20;;;;;;;;;;5123620;28;20052;-77
2022/08/01 09:08:43;;;;;;;4.40;2.22;;;;;;;;;;5117398;28;20077;-77
2022/08/01 09:11:28;;;;;;;3.88;2.08;;;;;;;;;;5118495;28;20472;-77
2022/08/01 09:14:22;;;;;;;3.95;2.53;;;;;;;;;;5117572;28;20065;-78
2022/08/01 09:17:10;;;;;;;3.17;2.20;;;;;;;;;;5117490;28;20039;-77
2022/08/01 09:19:55;;;;;;;3.08;1.98;;;;;;;;;;5123325;28;20388;-77
2022/08/01 09:22:41;;;;;;;3.38;2.50;;;;;;;;;;5116821;28;20476;-78
2022/08/01 09:25:32;;;;;;;3.58;2.25;;;;;;;;;;5123686;28;20044;-79
2022/08/01 09:28:27;;;;;;;3.35;2.15;;;;;;;;;;5122600;28;20036;-77
2022/08/01 09:31:17;;;;;;;;;;;;;;;;;;5118242;28;20059;-77
2022/08/01 09:34:05;;;;;;;4.75;2.25;;;;;;;;;;5123155;28;19915;-78
2022/08/01 09:36:58;;;;;;;2.58;2.03;;;;;;;;;;5124385;28;20063;-78
2022/08/01 09:39:45;;;;;;;3.90;2.17;;;;;;;;;;5117252;28;20492;-77
2022/08/01 09:42:30;;;;;;;2.75;2.38;;;;;;;;;;5123014;28;20484;-78
2022/08/01 09:45:33;;;;;;;4.78;2.28;;;;;;;;;;5124299;28;20043;-78
2022/08/01 09:48:20;;;;;;;6.32;2.03;;;;;;;;;;5115760;28;20484;-78
2022/08/01 09:51:07;;;;;;;5.95;2.85;;;;;;;;;;5116385;28;20039;-78
2022/08/01 09:53:52;;;;;;;6.00;2.45;;;;;;;;;;5118926;28;20036;-77
2022/08/01 09:56:42;;;;;;;5.55;2.35;;;;;;;;;;5114575;28;20040;-80
2022/08/01 09:59:37;;;;;;;3.70;1.83;;;;;;;;;;5114599;28;20048;-81
2022/08/01 10:02:37;;;;;;;2.63;2.30;;;;;;;;;;5121507;28;20047;-80
2022/08/01 10:05:34;;;;;;;3.45;2.22;;;;;;;;;;5114675;28;20051;-83
2022/08/01 10:08:23;;;;;;;3.10;2.00;;;;;;;;;;5121307;28;20043;-82
2022/08/01 10:11:10;;;;;;;5.43;2.17;;;;;;;;;;5119165;28;20036;-79
2022/08/01 10:13:58;;;;;;;5.10;2.33;;;;;;;;;;5126140;28;20040;-80
2022/08/01 10:16:45;;;;;;;5.93;2.17;;;;;;;;;;5125523;28;20047;-81
2022/08/01 10:19:32;;;;;;;3.13;2.30;;;;;;;;;;5126198;28;20047;-83
2022/08/01 10:22:19;;;;;;;2.85;1.90;;;;;;;;;;5126432;28;20147;-79
2022/08/01 10:25:05;;;;;;;5.13;2.30;;;;;;;;;;5124931;28;20047;-78
2022/08/01 10:27:54;;;;;;;2.30;1.80;;;;;;;;;;5117209;28;20047;-78
2022/08/01 10:30:42;;;;;;;2.50;2.00;;;;;;;;;;5117575;28;20059;-78
2022/08/01 10:33:29;;;;;;;2.55;1.92;;;;;;;;;;5126744;28;20043;-78
2022/08/01 10:36:18;;;;;;;3.92;2.30;;;;;;;;;;5120314;28;20047;-80
2022/08/01 10:39:11;;;;;;;3.97;3.13;;;;;;;;;;5120372;28;20400;-81
2022/08/01 10:41:58;;;;;;;3.22;2.70;;;;;;;;;;5125450;28;20036;-82
2022/08/01 10:44:47;;;;;;;94.15;62.50;;;;;;;;;;5124817;28;20044;-81
2022/08/01 10:48:08;;;;;;;536.95;449.48;;;;;;;;;;5118710;28;20388;-82
2022/08/01 10:50:59;;;;;;;4.75;4.18;;;;;;;;;;5110003;28;20048;-83
2022/08/01 10:53:47;;;;;;;8.40;6.45;;;;;;;;;;5118520;28;20035;-81
2022/08/01 10:56:44;;;;;;;7.72;5.72;;;;;;;;;;5124849;28;20043;-81
2022/08/01 10:59:29;;;;;;;2.33;1.90;;;;;;;;;;5118201;28;20048;-82
2022/08/01 11:02:33;;;;;;;3.88;2.75;;;;;;;;;;5124243;28;20040;-81
2022/08/01 11:05:24;;;;;;;3.35;2.17;;;;;;;;;;5117365;28;20051;-82
2022/08/01 11:08:22;;;;;;;3.38;2.20;;;;;;;;;;5118078;28;20032;-81
2022/08/01 11:11:08;;;;;;;2.63;2.20;;;;;;;;;;5124299;28;20395;-82
2022/08/01 11:14:12;;;;;;;2.88;2.10;;;;;;;;;;5117241;28;20043;-82
2022/08/01 11:17:33;;;;;;;2.83;2.30;;;;;;;;;;5117555;28;20040;-82
2022/08/01 11:20:33;;;;;;;2.72;1.90;;;;;;;;;;5117412;28;20047;-82
2022/08/01 11:23:18;;;;;;;4.90;3.20;;;;;;;;;;5117283;28;20409;-82
2022/08/01 11:26:03;;;;;;;5.65;1.92;;;;;;;;;;5117458;28;20039;-82
2022/08/01 11:29:15;;;;;;;2.85;2.28;;;;;;;;;;5119854;28;20036;-82
2022/08/01 11:32:24;;;;;;;4.05;2.17;;;;;;;;;;5118184;28;20044;-81
2022/08/01 11:35:09;;;;;;;2.78;2.30;;;;;;;;;;5116960;28;20036;-81
2022/08/01 11:37:56;;;;;;;3.17;2.03;;;;;;;;;;5117623;28;20048;-81
2022/08/01 11:40:41;;;;;;;5.68;2.15;;;;;;;;;;5116878;28;20040;-81
2022/08/01 11:43:27;;;;;;;4.53;2.05;;;;;;;;;;5116376;28;20043;-81
2022/08/01 11:46:12;;;;;;;7.18;2.65;;;;;;;;;;5123014;28;20052;-81
2022/08/01 11:49:29;;;;;;;1.90;1.60;;;;;;;;;;5123603;28;20035;-81
2022/08/01 11:52:23;;;;;;;4.32;2.40;;;;;;;;;;5116896;28;20487;-86
2022/08/01 11:55:09;;;;;;;3.43;2.27;;;;;;;;;;5116830;28;20036;-81
2022/08/01 11:58:03;;;;;;;2.88;1.95;;;;;;;;;;5123415;28;20280;-79
2022/08/01 12:00:56;;;;;;;5.38;2.03;;;;;;;;;;5116233;28;20477;-79
2022/08/01 12:03:42;;;;;;;3.47;1.85;;;;;;;;;;5116866;28;20043;-81
2022/08/01 12:06:28;;;;;;;6.40;2.10;;;;;;;;;;5116395;28;20039;-79
2022/08/01 12:09:23;;;;;;;7.97;2.08;;;;;;;;;;5116273;28;20040;-81
2022/08/01 12:12:10;;;;;;;2.78;1.52;;;;;;;;;;5116513;28;20036;-81
2022/08/01 12:14:58;;;;;;;5.30;2.05;;;;;;;;;;5116426;28;20044;-80
2022/08/01 12:17:47;;;;;;;4.10;1.95;;;;;;;;;;5116471;28;20400;-81
2022/08/01 12:20:34;;;;;;;4.32;2.10;;;;;;;;;;5116447;28;20039;-80
2022/08/01 12:23:20;;;;;;;4.25;2.25;;;;;;;;;;5123093;28;20035;-81
2022/08/01 12:26:06;;;;;;;2.72;2.13;;;;;;;;;;5122784;28;20044;-79
2022/08/01 12:28:52;;;;;;;3.25;1.88;;;;;;;;;;5116392;28;20507;-80
2022/08/01 12:31:37;;;;;;;8.00;2.03;;;;;;;;;;5115832;28;20048;-79
2022/08/01 12:34:30;;;;;;;2.92;1.80;;;;;;;;;;5123308;28;20461;-81
2022/08/01 12:37:17;;;;;;;3.97;1.95;;;;;;;;;;5116275;28;20043;-79
2022/08/01 12:40:23;;;;;;;3.75;2.40;;;;;;;;;;5122917;28;20156;-79
2022/08/01 12:43:09;;;;;;;4.53;2.00;;;;;;;;;;5115784;28;20040;-80
2022/08/01 12:45:58;;;;;;;3.30;2.00;;;;;;;;;;5115792;28;20052;-80
2022/08/01 12:48:44;;;;;;;1.98;1.70;;;;;;;;;;5115461;28;20401;-80
2022/08/01 12:51:28;;;;;;;3.90;1.88;;;;;;;;;;5115555;28;20039;-79
2022/08/01 12:54:14;;;;;;;2.20;1.95;;;;;;;;;;5122468;28;20047;-79
2022/08/01 12:56:59;;;;;;;3.28;2.30;;;;;;;;;;5122598;28;20047;-79
2022/08/01 12:59:45;;;;;;;3.42;2.10;;;;;;;;;;5115014;28;20488;-80
2022/08/01 13:02:35;;;;;;;5.93;2.10;;;;;;;;;;5114751;28;20375;-82
2022/08/01 13:05:25;;;;;;;2.67;2.08;;;;;;;;;;5115401;28;20051;-81
2022/08/01 13:08:23;;;;;;;3.47;2.30;;;;;;;;;;5115449;28;20044;-80
2022/08/01 13:11:13;;;;;;;4.78;1.90;;;;;;;;;;5115157;28;20408;-81
2022/08/01 13:13:59;;;;;;;3.13;2.22;;;;;;;;;;5115038;28;20039;-81
2022/08/01 13:16:46;;;;;;;2.75;1.90;;;;;;;;;;5114911;28;20044;-82
2022/08/01 13:19:42;;;;;;;4.28;2.03;;;;;;;;;;5114780;28;20036;-81
2022/08/01 13:22:36;;;;;;;3.63;2.00;;;;;;;;;;5115116;28;20040;-79
2022/08/01 13:25:22;;;;;;;2.67;2.13;;;;;;;;;;5115075;28;20039;-78
2022/08/01 13:28:16;;;;;;;4.45;2.20;;;;;;;;;;5121846;28;20044;-80
2022/08/01 13:31:06;;;;;;;2.83;1.90;;;;;;;;;;5115177;28;20043;-79
2022/08/01 13:33:51;;;;;;;3.92;1.95;;;;;;;;;;5121281;28;20043;-82
2022/08/01 13:36:38;;;;;;;3.00;1.52;;;;;;;;;;5114774;28;20492;-80
2022/08/01 13:39:43;;;;;;;4.25;1.80;;;;;;;;;;5114898;28;20048;-80
2022/08/01 13:42:29;;;;;;;2.58;1.80;;;;;;;;;;5121337;28;20040;-79
2022/08/01 13:45:16;;;;;;;2.22;1.70;;;;;;;;;;5114758;28;20051;-82
2022/08/01 13:48:03;;;;;;;3.53;1.88;;;;;;;;;;5120786;28;20047;-79
2022/08/01 13:50:47;;;;;;;2.17;1.70;;;;;;;;;;5114383;28;20043;-80
2022/08/01 13:53:35;;;;;;;3.17;2.10;;;;;;;;;;5114262;28;20048;-80
2022/08/01 13:56:21;;;;;;;7.90;1.92;;;;;;;;;;5114568;28;20047;-80
2022/08/01 13:59:09;;;;;;;8.18;1.92;;;;;;;;;;5113967;28;20047;-79
2022/08/01 14:01:55;;;;;;;3.03;1.85;;;;;;;;;;5114091;28;20483;-80
2022/08/01 14:04:41;;;;;;;4.50;1.48;;;;;;;;;;5114060;28;20047;-82
2022/08/01 14:07:27;;;;;;;2.88;1.60;;;;;;;;;;5119755;28;20044;-81
2022/08/01 14:10:13;;;;;;;4.25;2.03;;;;;;;;;;5113712;28;20496;-81
2022/08/01 14:12:59;;;;;;;2.40;1.70;;;;;;;;;;5113839;28;20396;-81
2022/08/01 14:15:45;;;;;;;2.97;1.60;;;;;;;;;;5113957;28;20043;-80
2022/08/01 14:18:31;;;;;;;3.53;2.42;;;;;;;;;;5112594;28;20039;-81
2022/08/01 14:21:16;;;;;;;3.65;1.90;;;;;;;;;;5113363;28;20055;-82
2022/08/01 14:24:02;;;;;;;3.03;2.60;;;;;;;;;;5113603;28;20048;-81
2022/08/01 14:26:47;;;;;;;3.78;1.90;;;;;;;;;;5119874;28;20043;-81
2022/08/01 14:29:33;;;;;;;2.88;1.85;;;;;;;;;;5113860;28;20039;-81
2022/08/01 14:32:18;;;;;;;5.05;2.20;;;;;;;;;;5113919;28;20044;-80
2022/08/01 14:35:06;;;;;;;6.03;2.67;;;;;;;;;;5120186;28;20419;-80
2022/08/01 14:37:52;;;;;;;5.85;3.20;;;;;;;;;;5113422;28;20044;-80
2022/08/01 14:40:37;;;;;;;2.55;2.03;;;;;;;;;;5113204;28;20039;-81
2022/08/01 14:43:23;;;;;;;3.17;2.08;;;;;;;;;;5120552;28;20412;-82
2022/08/01 14:46:09;;;;;;;3.45;2.22;;;;;;;;;;5114186;28;20035;-80
2022/08/01 14:48:55;;;;;;;2.67;2.10;;;;;;;;;;5112785;28;20047;-82
2022/08/01 14:51:41;;;;;;;4.82;2.30;;;;;;;;;;5113399;28;20039;-80
2022/08/01 14:54:27;;;;;;;8.48;2.60;;;;;;;;;;5119782;28;20043;-81
2022/08/01 14:57:13;;;;;;;3.35;2.53;;;;;;;;;;5112215;28;20048;-80
2022/08/01 14:59:58;;;;;;;1.92;1.67;;;;;;;;;;5113217;28;20044;-80
2022/08/01 15:02:45;;;;;;;4.10;1.92;;;;;;;;;;5112892;28;20040;-80
2022/08/01 15:05:32;;;;;;;5.15;2.30;;;;;;;;;;5112666;28;20047;-80
2022/08/01 15:08:18;;;;;;;3.63;2.08;;;;;;;;;;5113449;28;20036;-80
2022/08/01 15:11:03;;;;;;;2.00;1.80;;;;;;;;;;5112739;28;20040;-80
2022/08/01 15:14:47;;;;;;;4.65;2.50;;;;;;;;;;5111371;28;20040;-81
2022/08/01 15:16:55;;;;;;;3.50;2.40;;;;;;;;;;5113418;28;20047;-80
2022/08/01 15:19:41;;;;;;;2.45;2.15;;;;;;;;;;5117068;28;20044;-81
2022/08/01 15:22:27;;;;;;;4.07;2.63;;;;;;;;;;5123531;28;20416;-80
2022/08/01 15:25:14;;;;;;;3.55;2.28;;;;;;;;;;5123408;28;20392;-80
2022/08/01 15:28:00;;;;;;;4.22;2.22;;;;;;;;;;5123933;28;20088;-80
2022/08/01 15:30:46;;;;;;;5.85;3.00;;;;;;;;;;5123709;28;20044;-81
2022/08/01 15:33:33;;;;;;;3.95;3.22;;;;;;;;;;5116832;28;20039;-81
2022/08/01 15:36:23;;;;;;;142.02;112.85;;;;;;;;;;5123378;28;20047;-82
2022/08/01 15:39:12;;;;;;;6.28;4.43;;;;;;;;;;5122863;28;20047;-82
2022/08/01 15:42:00;;;;;;;13.95;7.45;;;;;;;;;;5116940;28;20048;-80
2022/08/01 15:44:45;;;;;;;5.10;3.15;;;;;;;;;;5123681;28;20039;-80
2022/08/01 15:47:33;;;;;;;7.43;2.80;;;;;;;;;;5121749;28;20051;-80
2022/08/01 15:50:19;;;;;;;4.53;3.30;;;;;;;;;;5117041;28;20412;-81
2022/08/01 15:53:06;;;;;;;2.85;2.55;;;;;;;;;;5115867;28;20043;-80
2022/08/01 15:55:51;;;;;;;8.35;2.92;;;;;;;;;;5122780;28;20416;-80
2022/08/01 15:58:36;;;;;;;4.80;2.63;;;;;;;;;;5117077;28;20480;-80
2022/08/01 16:01:25;;;;;;;3.47;2.47;;;;;;;;;;5122421;28;20056;-80
2022/08/01 16:04:10;;;;;;;6.45;3.05;;;;;;;;;;5116561;28;20047;-80
2022/08/01 16:06:57;;;;;;;6.53;3.75;;;;;;;;;;5114815;28;20039;-81
2022/08/01 16:09:42;;;;;;;6.78;4.25;;;;;;;;;;5122991;28;20048;-82
2022/08/01 16:12:28;;;;;;;3.40;2.53;;;;;;;;;;5123885;28;20043;-81
2022/08/01 16:15:14;;;;;;;4.18;2.42;;;;;;;;;;5117550;28;20031;-81
2022/08/01 16:18:00;;;;;;;3.33;2.05;;;;;;;;;;5123590;28;20035;-79
2022/08/01 16:20:45;;;;;;;2.60;2.40;;;;;;;;;;5123781;28;20055;-80
2022/08/01 16:23:31;;;;;;;3.40;2.30;;;;;;;;;;5123903;28;20065;-79
2022/08/01 16:26:17;;;;;;;2.30;1.83;;;;;;;;;;5124450;28;20048;-80
2022/08/01 16:29:03;;;;;;;3.83;2.20;;;;;;;;;;5117146;28;20040;-82
2022/08/01 16:31:49;;;;;;;2.78;2.20;;;;;;;;;;5122165;28;20040;-78
2022/08/01 16:34:36;;;;;;;5.88;2.20;;;;;;;;;;5114958;28;20396;-79
2022/08/01 16:37:25;;;;;;;6.05;2.50;;;;;;;;;;5114944;28;20036;-77
2022/08/01 16:40:12;;;;;;;4.82;2.70;;;;;;;;;;5122313;28;20472;-78
2022/08/01 16:42:58;;;;;;;4.97;2.50;;;;;;;;;;5114751;28;20051;-79
2022/08/01 16:45:45;;;;;;;2.53;2.00;;;;;;;;;;5114805;28;20044;-78
2022/08/01 16:48:30;;;;;;;3.08;2.10;;;;;;;;;;5122569;28;20044;-80